Time;durP1;ratioP1;P1;durP2;ratioP2;P2;SDS_P1;SDS_P2;PMS_P1;PMS_P2;Temp;Humidity;BMP_temperature;BMP_pressure;BME280_temperature;BME280_humidity;BME280_pressure;Samples;Min_cycle;Max_cycle;Signal;HPM_P1;HPM_P2
2022/08/12 00:44:57;;;;;;;;;;;19.90;99.90;;;;;;5060255;28;19959;-80
2022/08/12 00:47:23;;;;;;;;;;;19.90;99.90;;;;;;5060049;28;19920;-80
2022/08/12 00:49:49;;;;;;;;;;;19.90;99.90;;;;;;5060042;28;19916;-80
2022/08/12 00:52:15;;;;;;;;;;;19.80;99.90;;;;;;5060601;28;20367;-79
2022/08/12 00:54:48;;;;;;;;;;;19.80;99.90;;;;;;5059502;28;20116;-80
2022/08/12 00:57:24;;;;;;;;;;;19.80;99.90;;;;;;5024800;28;19920;-80
2022/08/12 00:59:54;;;;;;;;;;;19.70;99.90;;;;;;5041943;28;19928;-79
2022/08/12 01:02:24;;;;;;;;;;;19.70;99.90;;;;;;5042261;28;20356;-79
2022/08/12 01:13:06;;;;;;;;;;;19.60;99.90;;;;;;5059336;28;19924;-74
2022/08/12 01:15:32;;;;;;;;;;;19.60;99.90;;;;;;5059743;28;20337;-74
2022/08/12 01:17:58;;;;;;;;;;;19.50;99.90;;;;;;5059925;28;20416;-73
2022/08/12 01:20:34;;;;;;;;;;;19.50;99.90;;;;;;5059879;28;20345;-74
2022/08/12 01:23:14;;;;;;;;;;;19.50;99.90;;;;;;5059075;28;19932;-74
2022/08/12 01:25:43;;;;;;;;;;;19.50;99.90;;;;;;5059662;28;20137;-74
2022/08/12 01:28:11;;;;;;;;;;;19.50;99.90;;;;;;5058167;28;19928;-74
2022/08/12 01:30:38;;;;;;;;;;;19.50;99.90;;;;;;5059336;28;19916;-74
2022/08/12 01:33:04;;;;;;;;;;;19.50;99.90;;;;;;5058942;28;19920;-74
2022/08/12 01:35:31;;;;;;;;;;;19.50;99.90;;;;;;5059307;28;19974;-73
2022/08/12 01:38:00;;;;;;;;;;;19.50;99.90;;;;;;5041688;28;20606;-74
2022/08/12 01:40:28;;;;;;;;;;;19.50;99.90;;;;;;5041357;28;20259;-74
2022/08/12 01:42:56;;;;;;;;;;;19.50;99.90;;;;;;5058278;28;20388;-74
2022/08/12 01:45:23;;;;;;;;;;;19.50;99.90;;;;;;5058783;28;19970;-74
2022/08/12 01:47:48;;;;;;;;;;;19.40;99.90;;;;;;5059209;28;19924;-74
2022/08/12 01:50:20;;;;;;;;;;;19.40;99.90;;;;;;5059302;28;20340;-74
2022/08/12 01:53:05;;;;;;;;;;;19.40;99.90;;;;;;5059645;28;19931;-73
2022/08/12 01:55:32;;;;;;;;;;;19.40;99.90;;;;;;5059321;28;19924;-74
2022/08/12 01:58:00;;;;;;;;;;;19.40;99.90;;;;;;5058418;28;19927;-74
2022/08/12 02:00:30;;;;;;;;;;;19.30;99.90;;;;;;5040740;28;20323;-74
2022/08/12 02:03:16;;;;;;;;;;;19.30;99.90;;;;;;5059084;28;20394;-74
2022/08/12 02:11:30;;;;;;;;;;;19.30;99.90;;;;;;5058124;28;19963;-75
2022/08/12 02:14:14;;;;;;;;;;;19.30;99.90;;;;;;5058931;28;19920;-73
2022/08/12 02:16:40;;;;;;;;;;;19.30;99.90;;;;;;5058876;28;20093;-74
2022/08/12 02:19:11;;;;;;;;;;;19.20;99.90;;;;;;5040632;28;20329;-74
2022/08/12 02:21:52;;;;;;;;;;;19.20;99.90;;;;;;5058706;28;19932;-73
2022/08/12 02:24:19;;;;;;;;;;;19.20;99.90;;;;;;5058986;28;20378;-73
2022/08/12 02:26:46;;;;;;;;;;;19.20;99.90;;;;;;5058210;28;19924;-73
2022/08/12 02:29:12;;;;;;;;;;;19.20;99.90;;;;;;5058582;28;21181;-74
2022/08/12 02:31:38;;;;;;;;;;;19.20;99.90;;;;;;5058236;28;19920;-73
2022/08/12 02:34:04;;;;;;;;;;;19.20;99.90;;;;;;5058572;28;19920;-74
2022/08/12 02:36:31;;;;;;;;;;;19.20;99.90;;;;;;5040563;28;20012;-74
2022/08/12 02:38:58;;;;;;;;;;;19.20;99.90;;;;;;5058415;28;19920;-74
2022/08/12 02:41:24;;;;;;;;;;;19.20;99.90;;;;;;5058060;28;20032;-74
2022/08/12 02:43:51;;;;;;;;;;;19.10;99.90;;;;;;5059290;28;19921;-74
2022/08/12 02:46:24;;;;;;;;;;;19.10;99.90;;;;;;5062343;28;20010;-73
2022/08/12 02:48:51;;;;;;;;;;;19.10;99.90;;;;;;5045117;28;20336;-74
2022/08/12 02:51:27;;;;;;;;;;;19.10;99.90;;;;;;5062838;28;19928;-74
2022/08/12 02:53:56;;;;;;;;;;;19.10;99.90;;;;;;5062689;28;19982;-74
2022/08/12 02:56:22;;;;;;;;;;;19.10;99.90;;;;;;5044286;28;20015;-74
2022/08/12 02:58:48;;;;;;;;;;;19.10;99.90;;;;;;5062227;28;20062;-74
2022/08/12 03:01:14;;;;;;;;;;;19.10;99.90;;;;;;5062360;28;20383;-74
2022/08/12 03:03:40;;;;;;;;;;;19.10;99.90;;;;;;5044098;28;19920;-73
2022/08/12 03:06:07;;;;;;;;;;;19.10;99.90;;;;;;5044335;28;20479;-74
2022/08/12 03:08:42;;;;;;;;;;;19.10;99.90;;;;;;5062226;28;20401;-74
2022/08/12 03:11:26;;;;;;;;;;;19.10;99.90;;;;;;5061638;28;19920;-74
2022/08/12 03:13:54;;;;;;;;;;;19.10;99.90;;;;;;5044655;28;20397;-73
2022/08/12 03:16:20;;;;;;;;;;;19.10;99.90;;;;;;5043996;28;20117;-73
2022/08/12 03:18:47;;;;;;;;;;;19.10;99.90;;;;;;5061970;28;20310;-74
2022/08/12 03:21:14;;;;;;;;;;;19.10;99.90;;;;;;5061814;28;19916;-74
2022/08/12 03:23:40;;;;;;;;;;;19.10;99.90;;;;;;5061741;28;20101;-74
2022/08/12 03:26:06;;;;;;;;;;;19.10;99.90;;;;;;5061557;28;20019;-74
2022/08/12 03:28:49;;;;;;;;;;;19.00;99.90;;;;;;5060802;28;20207;-74
2022/08/12 03:31:15;;;;;;;;;;;19.10;99.90;;;;;;5043862;28;20683;-74
2022/08/12 03:33:43;;;;;;;;;;;19.00;99.90;;;;;;5062171;28;19920;-74
2022/08/12 03:36:09;;;;;;;;;;;19.00;99.90;;;;;;5026479;28;19978;-73
2022/08/12 03:38:37;;;;;;;;;;;19.00;99.90;;;;;;5061561;28;19921;-74
2022/08/12 03:41:33;;;;;;;;;;;19.00;99.90;;;;;;5043663;28;19920;-74
2022/08/12 04:00:46;;;;;;;;;;;19.00;99.90;;;;;;5060838;28;20011;-74
2022/08/12 04:05:55;;;;;;;;;;;18.90;99.90;;;;;;5061286;28;20048;-74
2022/08/12 04:08:25;;;;;;;;;;;18.90;99.90;;;;;;5061226;28;20211;-74
2022/08/12 04:13:35;;;;;;;;;;;18.90;99.90;;;;;;5060936;28;20037;-74
2022/08/12 04:16:01;;;;;;;;;;;18.90;99.90;;;;;;5060744;28;19947;-73
2022/08/12 04:18:27;;;;;;;;;;;18.90;99.90;;;;;;5061233;28;20111;-73
2022/08/12 04:20:53;;;;;;;;;;;18.80;99.90;;;;;;5060924;28;19920;-74
2022/08/12 04:23:20;;;;;;;;;;;18.80;99.90;;;;;;5060734;28;19931;-74
2022/08/12 04:25:46;;;;;;;;;;;18.90;99.90;;;;;;5060601;28;19926;-74
2022/08/12 04:28:11;;;;;;;;;;;18.80;99.90;;;;;;5041496;28;20430;-74
2022/08/12 04:30:38;;;;;;;;;;;18.80;99.90;;;;;;5042512;28;20643;-74
2022/08/12 04:33:08;;;;;;;;;;;18.80;99.90;;;;;;5060442;28;19920;-74
2022/08/12 04:35:34;;;;;;;;;;;18.80;99.90;;;;;;5060267;28;19920;-74
2022/08/12 04:38:00;;;;;;;;;;;18.80;99.90;;;;;;5060801;28;19942;-74
2022/08/12 04:40:26;;;;;;;;;;;18.80;99.90;;;;;;5060740;28;19920;-74
2022/08/12 04:42:52;;;;;;;;;;;18.80;99.90;;;;;;5041174;28;19920;-73
2022/08/12 04:45:18;;;;;;;;;;;18.80;99.90;;;;;;5060491;28;19920;-74
2022/08/12 04:47:43;;;;;;;;;;;18.80;99.90;;;;;;5042904;28;19922;-74
2022/08/12 04:50:10;;;;;;;;;;;18.80;99.90;;;;;;5060023;28;19920;-73
2022/08/12 04:52:35;;;;;;;;;;;18.70;99.90;;;;;;5060389;28;19921;-74
2022/08/12 04:55:01;;;;;;;;;;;18.80;99.90;;;;;;5060287;28;20500;-74
2022/08/12 04:57:27;;;;;;;;;;;18.80;99.90;;;;;;5041712;28;19920;-76
2022/08/12 04:59:52;;;;;;;;;;;18.80;99.90;;;;;;5059996;28;19928;-74
2022/08/12 05:02:18;;;;;;;;;;;18.70;99.90;;;;;;5060375;28;20003;-73
2022/08/12 05:04:46;;;;;;;;;;;18.80;99.90;;;;;;5059901;28;20135;-74
2022/08/12 05:07:12;;;;;;;;;;;18.80;99.90;;;;;;5059148;28;19925;-74
2022/08/12 05:09:37;;;;;;;;;;;18.80;99.90;;;;;;5059842;28;20345;-74
2022/08/12 05:12:03;;;;;;;;;;;18.80;99.90;;;;;;5058257;28;20425;-74
2022/08/12 05:14:30;;;;;;;;;;;18.80;99.90;;;;;;5041966;28;20298;-74
2022/08/12 05:16:55;;;;;;;;;;;18.80;99.90;;;;;;5059891;28;19924;-74
2022/08/12 05:19:21;;;;;;;;;;;18.80;99.90;;;;;;5059716;28;20030;-74
2022/08/12 05:21:46;;;;;;;;;;;18.80;99.90;;;;;;5041661;28;20136;-74
2022/08/12 05:24:12;;;;;;;;;;;18.90;99.90;;;;;;5041545;28;19923;-74
2022/08/12 05:26:37;;;;;;;;;;;18.90;99.90;;;;;;5057870;28;20423;-74
2022/08/12 05:29:04;;;;;;;;;;;18.90;99.90;;;;;;5059434;28;19921;-75
2022/08/12 05:31:29;;;;;;;;;;;18.90;99.90;;;;;;5042005;28;20131;-74
2022/08/12 05:33:55;;;;;;;;;;;19.00;99.90;;;;;;5059340;28;19920;-74
2022/08/12 05:36:20;;;;;;;;;;;19.00;99.90;;;;;;5059734;28;19973;-73
2022/08/12 05:38:55;;;;;;;;;;;18.90;99.90;;;;;;5059173;28;20429;-74
2022/08/12 05:41:21;;;;;;;;;;;19.00;99.90;;;;;;5057832;28;19920;-74
2022/08/12 05:43:51;;;;;;;;;;;19.00;99.90;;;;;;5058957;28;19974;-74
2022/08/12 05:46:18;;;;;;;;;;;19.00;99.90;;;;;;5059083;28;20376;-74
2022/08/12 05:48:43;;;;;;;;;;;19.00;99.90;;;;;;5058859;28;19920;-74
2022/08/12 05:51:10;;;;;;;;;;;19.10;99.90;;;;;;5059148;28;19927;-74
2022/08/12 05:53:39;;;;;;;;;;;19.10;99.90;;;;;;5040657;28;20002;-74
2022/08/12 05:56:04;;;;;;;;;;;19.10;99.90;;;;;;5057988;28;20011;-74
2022/08/12 05:58:31;;;;;;;;;;;19.10;99.90;;;;;;5059233;28;20022;-74
2022/08/12 06:00:57;;;;;;;;;;;19.10;99.90;;;;;;5058621;28;20008;-74
2022/08/12 06:03:24;;;;;;;;;;;19.20;99.90;;;;;;5059011;28;19974;-74
2022/08/12 06:05:50;;;;;;;;;;;19.20;99.90;;;;;;5058820;28;19920;-74
2022/08/12 06:08:18;;;;;;;;;;;19.20;99.90;;;;;;5058962;28;19928;-74
2022/08/12 06:10:48;;;;;;;;;;;19.20;99.90;;;;;;5058374;28;19920;-74
2022/08/12 06:13:14;;;;;;;;;;;19.20;99.90;;;;;;5058326;28;20350;-74
2022/08/12 06:15:39;;;;;;;;;;;19.20;99.90;;;;;;5040579;28;19966;-74
2022/08/12 06:18:06;;;;;;;;;;;19.30;99.90;;;;;;5059098;28;20010;-74
2022/08/12 06:20:32;;;;;;;;;;;19.30;99.90;;;;;;5041503;28;20193;-74
2022/08/12 06:22:58;;;;;;;;;;;19.30;99.90;;;;;;5058449;28;20389;-74
2022/08/12 06:25:28;;;;;;;;;;;19.30;99.90;;;;;;5058599;28;20058;-74
2022/08/12 06:27:55;;;;;;;;;;;19.40;99.90;;;;;;5057430;28;20011;-74
2022/08/12 06:30:21;;;;;;;;;;;19.40;99.90;;;;;;5058514;28;19920;-74
2022/08/12 06:32:47;;;;;;;;;;;19.40;99.90;;;;;;5058833;28;20029;-74
2022/08/12 06:35:13;;;;;;;;;;;19.50;99.90;;;;;;5040976;28;20417;-73
2022/08/12 06:37:39;;;;;;;;;;;19.50;99.90;;;;;;5040282;28;20019;-74
2022/08/12 06:40:05;;;;;;;;;;;19.50;99.90;;;;;;5058938;28;20003;-74
2022/08/12 06:45:19;;;;;;;;;;;19.60;99.90;;;;;;5040268;28;19927;-74
2022/08/12 06:47:45;;;;;;;;;;;19.60;99.90;;;;;;5040558;28;19920;-73
2022/08/12 06:50:16;;;;;;;;;;;19.70;99.90;;;;;;5058281;28;20199;-74
2022/08/12 06:52:42;;;;;;;;;;;19.70;99.90;;;;;;5040444;28;19924;-74
2022/08/12 06:55:10;;;;;;;;;;;19.70;99.90;;;;;;5058275;28;20023;-75
2022/08/12 06:57:55;;;;;;;;;;;19.80;99.90;;;;;;5057718;28;20413;-74
2022/08/12 07:00:21;;;;;;;;;;;19.80;99.90;;;;;;5058160;28;19924;-74
2022/08/12 07:02:47;;;;;;;;;;;19.80;99.90;;;;;;5058423;28;20381;-74
2022/08/12 07:05:12;;;;;;;;;;;19.80;99.90;;;;;;5058853;28;20003;-74
2022/08/12 07:07:38;;;;;;;;;;;19.90;99.90;;;;;;5023583;28;20402;-74
2022/08/12 07:10:04;;;;;;;;;;;19.90;99.90;;;;;;5041101;28;20137;-74
2022/08/12 07:12:30;;;;;;;;;;;20.00;99.90;;;;;;5057201;28;19998;-74
2022/08/12 07:14:57;;;;;;;;;;;20.00;99.90;;;;;;5040121;28;19924;-74
2022/08/12 07:17:22;;;;;;;;;;;20.00;99.90;;;;;;5058243;28;20386;-74
2022/08/12 07:19:50;;;;;;;;;;;20.10;99.90;;;;;;5058370;28;20140;-74
2022/08/12 07:22:16;;;;;;;;;;;20.10;99.90;;;;;;5058069;28;19963;-74
2022/08/12 07:24:42;;;;;;;;;;;20.20;99.90;;;;;;5058342;28;19990;-74
2022/08/12 07:27:07;;;;;;;;;;;20.20;99.90;;;;;;5057458;28;19920;-73
2022/08/12 07:29:33;;;;;;;;;;;20.30;99.90;;;;;;5057653;28;20155;-74
2022/08/12 07:31:58;;;;;;;;;;;20.30;99.90;;;;;;5060905;28;20018;-74
2022/08/12 07:34:25;;;;;;;;;;;20.30;99.90;;;;;;5043695;28;19920;-74
2022/08/12 07:36:51;;;;;;;;;;;20.40;99.90;;;;;;5061494;28;19921;-74
2022/08/12 07:39:16;;;;;;;;;;;20.40;99.90;;;;;;5027046;28;20127;-74
2022/08/12 07:41:43;;;;;;;;;;;20.40;99.90;;;;;;5060656;28;20101;-74
2022/08/12 07:44:08;;;;;;;;;;;20.50;99.90;;;;;;5043950;28;20348;-73
2022/08/12 07:46:35;;;;;;;;;;;20.50;99.90;;;;;;5061287;28;19920;-74
2022/08/12 07:49:05;;;;;;;;;;;20.60;99.90;;;;;;5061921;28;20253;-74
2022/08/12 07:51:31;;;;;;;;;;;20.60;99.90;;;;;;5061133;28;20405;-74
2022/08/12 07:53:57;;;;;;;;;;;20.70;99.90;;;;;;5043663;28;20011;-74
2022/08/12 07:56:23;;;;;;;;;;;20.70;99.90;;;;;;5042383;28;19923;-74
2022/08/12 07:58:48;;;;;;;;;;;20.80;99.90;;;;;;5060997;28;20318;-74
2022/08/12 08:01:16;;;;;;;;;;;20.80;99.90;;;;;;5043178;28;20020;-74
2022/08/12 08:06:26;;;;;;;;;;;20.90;99.90;;;;;;5060714;28;20444;-74
2022/08/12 08:08:55;;;;;;;;;;;21.00;99.90;;;;;;5043357;28;19920;-73
2022/08/12 08:14:06;;;;;;;;;;;21.10;99.90;;;;;;5061344;28;19920;-74
2022/08/12 08:16:32;;;;;;;;;;;21.10;99.90;;;;;;5042566;28;20122;-74
2022/08/12 08:18:58;;;;;;;;;;;21.20;99.90;;;;;;5061192;28;20127;-74
2022/08/12 08:21:26;;;;;;;;;;;21.20;99.90;;;;;;5061048;28;19920;-74
2022/08/12 08:26:36;;;;;;;;;;;21.30;99.90;;;;;;5041421;28;19974;-74
2022/08/12 08:29:01;;;;;;;;;;;21.40;99.90;;;;;;5060158;28;19927;-74
2022/08/12 08:31:27;;;;;;;;;;;21.40;99.90;;;;;;5060427;28;20374;-74
2022/08/12 08:33:53;;;;;;;;;;;21.40;99.90;;;;;;5060775;28;19927;-74
2022/08/12 08:36:20;;;;;;;;;;;21.50;99.90;;;;;;5042306;28;20007;-74
2022/08/12 08:38:45;;;;;;;;;;;21.50;99.90;;;;;;5060269;28;19920;-74
2022/08/12 08:43:58;;;;;;;;;;;21.60;99.90;;;;;;5041631;28;19921;-74
2022/08/12 08:46:24;;;;;;;;;;;21.70;99.90;;;;;;5060217;28;19921;-74
2022/08/12 08:48:50;;;;;;;;;;;21.80;99.90;;;;;;5042269;28;20271;-74
2022/08/12 08:51:15;;;;;;;;;;;21.80;99.90;;;;;;5059911;28;19924;-75
2022/08/12 08:53:43;;;;;;;;;;;21.80;99.90;;;;;;5042471;28;19943;-74
2022/08/12 08:56:09;;;;;;;;;;;21.90;99.90;;;;;;5058992;28;19928;-74
2022/08/12 08:58:37;;;;;;;;;;;22.00;99.90;;;;;;5059976;28;19924;-74
2022/08/12 09:01:05;;;;;;;;;;;22.10;99.90;;;;;;5059867;28;19924;-74
2022/08/12 09:03:32;;;;;;;;;;;22.10;99.90;;;;;;5059525;28;19967;-74
2022/08/12 09:05:59;;;;;;;;;;;22.20;99.90;;;;;;5059587;28;20013;-74
2022/08/12 09:08:24;;;;;;;;;;;22.30;99.90;;;;;;5059715;28;20132;-74
2022/08/12 09:10:49;;;;;;;;;;;22.40;99.90;;;;;;5058700;28;19927;-74
2022/08/12 09:13:27;;;;;;;;;;;22.40;99.90;;;;;;5025462;28;19924;-74
2022/08/12 09:15:53;;;;;;;;;;;22.50;99.90;;;;;;5041912;28;20262;-74
2022/08/12 09:18:19;;;;;;;;;;;22.60;99.90;;;;;;5059680;28;19950;-74
2022/08/12 09:20:44;;;;;;;;;;;22.60;99.90;;;;;;5060483;28;20078;-74
2022/08/12 09:23:11;;;;;;;;;;;22.70;99.90;;;;;;5041238;28;19930;-74
2022/08/12 09:25:40;;;;;;;;;;;22.80;99.90;;;;;;5058751;28;20028;-74
2022/08/12 09:28:08;;;;;;;;;;;22.80;99.90;;;;;;5059139;28;20456;-74
2022/08/12 09:30:34;;;;;;;;;;;22.80;99.90;;;;;;5041216;28;19976;-74
2022/08/12 09:33:00;;;;;;;;;;;22.90;99.90;;;;;;5041376;28;20370;-74
2022/08/12 09:35:30;;;;;;;;;;;23.00;99.90;;;;;;5059780;28;19920;-74
2022/08/12 09:37:56;;;;;;;;;;;23.00;99.90;;;;;;5041036;28;19943;-74
2022/08/12 09:40:22;;;;;;;;;;;23.10;99.90;;;;;;5040250;28;20328;-74
2022/08/12 09:45:32;;;;;;;;;;;23.20;99.90;;;;;;5059250;28;19974;-74
2022/08/12 09:48:02;;;;;;;;;;;23.30;99.90;;;;;;5059117;28;20429;-74
2022/08/12 09:50:31;;;;;;;;;;;23.30;99.90;;;;;;5041131;28;19966;-74
2022/08/12 09:53:04;;;;;;;;;;;23.40;99.90;;;;;;5059271;28;20028;-74
2022/08/12 09:55:31;;;;;;;;;;;23.50;99.90;;;;;;5023278;28;19960;-74
2022/08/12 09:57:57;;;;;;;;;;;23.50;99.90;;;;;;5041259;28;19920;-74
2022/08/12 10:00:25;;;;;;;;;;;23.60;99.90;;;;;;5059092;28;19920;-74
2022/08/12 10:03:04;;;;;;;;;;;23.60;99.90;;;;;;5040999;28;19928;-75
2022/08/12 10:05:35;;;;;;;;;;;23.60;99.90;;;;;;5058500;28;20426;-74
2022/08/12 10:08:01;;;;;;;;;;;23.70;99.90;;;;;;5058824;28;19920;-74
2022/08/12 10:10:27;;;;;;;;;;;23.70;99.90;;;;;;5057687;28;19917;-74
2022/08/12 10:16:05;;;;;;;;;;;23.80;99.90;;;;;;4941170;28;19922;-74
2022/08/12 10:18:31;;;;;;;;;;;23.90;99.90;;;;;;4957013;28;19972;-74
2022/08/12 10:20:58;;;;;;;;;;;24.00;99.90;;;;;;5003406;28;20019;-74
2022/08/12 10:23:24;;;;;;;;;;;24.00;99.90;;;;;;5040733;28;20007;-74
2022/08/12 10:31:20;;;;;;;;;;;24.20;99.90;;;;;;5059332;28;20120;-74
2022/08/12 10:33:46;;;;;;;;;;;24.20;99.90;;;;;;5040723;28;20048;-74
2022/08/12 10:36:11;;;;;;;;;;;24.20;99.90;;;;;;5058609;28;19950;-74
2022/08/12 10:38:36;;;;;;;;;;;24.30;99.90;;;;;;5058888;28;20083;-75
2022/08/12 10:43:47;;;;;;;;;;;24.40;99.90;;;;;;5040713;28;20021;-74
2022/08/12 10:46:16;;;;;;;;;;;24.40;99.90;;;;;;5040310;28;19955;-74
2022/08/12 10:48:50;;;;;;;;;;;24.40;99.90;;;;;;5058296;28;20219;-75
2022/08/12 10:51:17;;;;;;;;;;;24.50;99.90;;;;;;5058394;28;19920;-74
2022/08/12 10:53:46;;;;;;;;;;;24.60;98.60;;;;;;5040478;28;19955;-74
2022/08/12 10:56:16;;;;;;;;;;;24.60;99.20;;;;;;5039705;28;19928;-74
2022/08/12 10:58:42;;;;;;;;;;;24.60;99.10;;;;;;5040201;28;21032;-75
2022/08/12 11:01:09;;;;;;;;;;;24.70;99.90;;;;;;5057914;28;20116;-75
2022/08/12 11:03:38;;;;;;;;;;;24.70;97.80;;;;;;5058004;28;19921;-75
2022/08/12 11:06:04;;;;;;;;;;;24.80;97.90;;;;;;5059825;28;19926;-74
2022/08/12 11:08:31;;;;;;;;;;;24.90;96.30;;;;;;5061651;28;19978;-75
2022/08/12 11:10:56;;;;;;;;;;;24.90;96.70;;;;;;5060964;28;19950;-75
2022/08/12 11:13:21;;;;;;;;;;;25.00;96.20;;;;;;5044720;28;20294;-75
2022/08/12 11:15:47;;;;;;;;;;;25.10;97.40;;;;;;5061620;28;19928;-74
2022/08/12 11:18:13;;;;;;;;;;;25.10;97.30;;;;;;5061796;28;19930;-75
2022/08/12 11:20:39;;;;;;;;;;;25.10;97.10;;;;;;5061731;28;20366;-75
2022/08/12 11:23:04;;;;;;;;;;;25.20;93.90;;;;;;5061598;28;19920;-75
2022/08/12 11:25:30;;;;;;;;;;;25.20;95.50;;;;;;5060722;28;19920;-75
2022/08/12 11:27:55;;;;;;;;;;;25.20;94.00;;;;;;5043788;28;20007;-75
2022/08/12 11:30:21;;;;;;;;;;;25.30;94.90;;;;;;5061406;28;20344;-74
2022/08/12 11:32:47;;;;;;;;;;;25.30;95.10;;;;;;5061665;28;19920;-74
2022/08/12 11:35:12;;;;;;;;;;;25.30;94.60;;;;;;5061551;28;20454;-75
2022/08/12 11:37:39;;;;;;;;;;;25.30;94.70;;;;;;5061232;28;19920;-75
2022/08/12 11:40:05;;;;;;;;;;;25.40;94.90;;;;;;5060602;28;20011;-75
2022/08/12 11:42:31;;;;;;;;;;;25.40;91.30;;;;;;5043455;28;19927;-75
2022/08/12 11:44:56;;;;;;;;;;;25.50;93.60;;;;;;5060916;28;19921;-75
2022/08/12 11:47:22;;;;;;;;;;;25.50;93.30;;;;;;5061609;28;19920;-74
2022/08/12 11:49:47;;;;;;;;;;;25.50;91.60;;;;;;5043382;28;20347;-75
2022/08/12 11:52:13;;;;;;;;;;;25.60;88.00;;;;;;5060805;28;19920;-74
2022/08/12 11:54:38;;;;;;;;;;;25.60;91.20;;;;;;5061083;28;19927;-75
2022/08/12 11:57:04;;;;;;;;;;;25.70;91.80;;;;;;5060558;28;19948;-74
2022/08/12 11:59:32;;;;;;;;;;;25.70;91.70;;;;;;5043084;28;19920;-74
2022/08/12 12:04:50;;;;;;;;;;;25.80;81.60;;;;;;5029909;28;20426;-74
2022/08/12 12:07:15;;;;;;;;;;;25.90;84.60;;;;;;5060869;28;20023;-74
2022/08/12 12:09:41;;;;;;;;;;;25.80;88.90;;;;;;5043197;28;19982;-74
2022/08/12 12:12:06;;;;;;;;;;;25.90;89.40;;;;;;5059718;28;20023;-75
2022/08/12 12:14:32;;;;;;;;;;;25.90;88.30;;;;;;5061088;28;20378;-74
2022/08/12 12:16:57;;;;;;;;;;;25.80;87.90;;;;;;5060927;28;19986;-75
2022/08/12 12:19:23;;;;;;;;;;;25.90;88.90;;;;;;5060806;28;19917;-74
2022/08/12 12:21:48;;;;;;;;;;;25.90;90.00;;;;;;5042789;28;20273;-74
2022/08/12 12:24:14;;;;;;;;;;;26.00;90.10;;;;;;5061021;28;19920;-75
2022/08/12 12:26:39;;;;;;;;;;;25.90;89.70;;;;;;5059328;28;19927;-74
2022/08/12 12:29:05;;;;;;;;;;;26.00;90.00;;;;;;5043006;28;20320;-74
2022/08/12 12:31:32;;;;;;;;;;;26.00;93.60;;;;;;5061172;28;19974;-74
2022/08/12 12:33:57;;;;;;;;;;;26.00;93.80;;;;;;5060298;28;20305;-75
2022/08/12 12:36:23;;;;;;;;;;;26.10;94.20;;;;;;5060801;28;19921;-75
2022/08/12 12:38:49;;;;;;;;;;;26.10;94.50;;;;;;5060361;28;20366;-74
2022/08/12 12:41:15;;;;;;;;;;;26.10;95.10;;;;;;5059114;28;19966;-74
2022/08/12 12:43:40;;;;;;;;;;;26.20;91.70;;;;;;5060624;28;20012;-74
2022/08/12 12:46:06;;;;;;;;;;;26.20;92.80;;;;;;5060817;28;20502;-74
2022/08/12 12:48:31;;;;;;;;;;;26.20;90.60;;;;;;5041902;28;19975;-74
2022/08/12 12:51:15;;;;;;;;;;;26.20;90.30;;;;;;5060539;28;20389;-75
2022/08/12 12:53:46;;;;;;;;;;;26.30;91.80;;;;;;5060188;28;20196;-75
2022/08/12 12:56:22;;;;;;;;;;;26.30;92.20;;;;;;5059417;28;19920;-74
2022/08/12 12:58:51;;;;;;;;;;;26.30;90.60;;;;;;5059713;28;19936;-74
2022/08/12 13:01:18;;;;;;;;;;;26.30;91.30;;;;;;5060503;28;19924;-74
2022/08/12 13:03:44;;;;;;;;;;;26.30;92.60;;;;;;5042314;28;19920;-74
2022/08/12 13:06:09;;;;;;;;;;;26.30;92.70;;;;;;5059272;28;20402;-74
2022/08/12 13:08:35;;;;;;;;;;;26.40;92.80;;;;;;5059931;28;19991;-74
2022/08/12 13:11:02;;;;;;;;;;;26.40;94.70;;;;;;5058529;28;19920;-75
2022/08/12 13:13:32;;;;;;;;;;;26.40;92.80;;;;;;5059703;28;20409;-74
2022/08/12 13:15:59;;;;;;;;;;;26.40;93.70;;;;;;5042345;28;20014;-74
2022/08/12 13:18:27;;;;;;;;;;;26.40;95.80;;;;;;5059856;28;19959;-74
2022/08/12 13:20:52;;;;;;;;;;;26.40;95.10;;;;;;5059769;28;19921;-75
2022/08/12 13:23:18;;;;;;;;;;;26.50;95.50;;;;;;5059554;28;19920;-75
2022/08/12 13:25:45;;;;;;;;;;;26.50;96.10;;;;;;5058681;28;20203;-75
2022/08/12 13:28:27;;;;;;;;;;;26.50;95.10;;;;;;5040718;28;19946;-74
2022/08/12 13:30:54;;;;;;;;;;;26.50;96.80;;;;;;5059271;28;19920;-75
2022/08/12 13:33:24;;;;;;;;;;;26.50;94.80;;;;;;5059143;28;19921;-74
2022/08/12 13:35:51;;;;;;;;;;;26.60;95.40;;;;;;5059251;28;20471;-74
2022/08/12 13:38:16;;;;;;;;;;;26.60;95.60;;;;;;5059418;28;20027;-74
2022/08/12 13:40:43;;;;;;;;;;;26.60;97.40;;;;;;5057876;28;20019;-75
2022/08/12 13:43:14;;;;;;;;;;;26.60;96.90;;;;;;5041424;28;19978;-74
2022/08/12 13:45:40;;;;;;;;;;;26.60;95.80;;;;;;5041025;28;19920;-74
2022/08/12 13:48:06;;;;;;;;;;;26.60;94.50;;;;;;5059183;28;19994;-74
2022/08/12 13:50:31;;;;;;;;;;;26.60;94.20;;;;;;5041497;28;20361;-74
2022/08/12 13:53:00;;;;;;;;;;;26.60;95.40;;;;;;5059354;28;19920;-74
2022/08/12 13:55:26;;;;;;;;;;;26.60;97.30;;;;;;5040029;28;20247;-74
2022/08/12 13:57:52;;;;;;;;;;;26.60;97.70;;;;;;5040923;28;19962;-74
2022/08/12 14:00:18;;;;;;;;;;;26.70;98.20;;;;;;5058497;28;20337;-74
2022/08/12 14:02:43;;;;;;;;;;;26.70;96.40;;;;;;5059393;28;20300;-74
2022/08/12 14:05:09;;;;;;;;;;;26.70;95.40;;;;;;5059258;28;20019;-74
2022/08/12 14:07:50;;;;;;;;;;;26.80;96.40;;;;;;5058951;28;19977;-74
2022/08/12 14:10:35;;;;;;;;;;;26.80;94.70;;;;;;5057847;28;20011;-73
2022/08/12 14:13:22;;;;;;;;;;;26.80;95.40;;;;;;5059038;28;19966;-74
2022/08/12 14:15:52;;;;;;;;;;;26.80;95.30;;;;;;5040891;28;19924;-74
2022/08/12 14:18:18;;;;;;;;;;;26.70;94.30;;;;;;5058722;28;19920;-74
2022/08/12 14:20:45;;;;;;;;;;;26.80;94.80;;;;;;5058699;28;19920;-74
2022/08/12 14:23:12;;;;;;;;;;;26.70;94.20;;;;;;5058635;28;20290;-74
2022/08/12 14:25:42;;;;;;;;;;;26.70;93.90;;;;;;5057709;28;19966;-74
2022/08/12 14:28:10;;;;;;;;;;;26.80;92.90;;;;;;5040173;28;19946;-74
2022/08/12 14:30:36;;;;;;;;;;;26.80;92.50;;;;;;5058550;28;19921;-74
2022/08/12 14:33:04;;;;;;;;;;;26.80;93.20;;;;;;5059158;28;19920;-74
2022/08/12 14:35:29;;;;;;;;;;;26.80;92.60;;;;;;5040846;28;19974;-74
2022/08/12 14:37:55;;;;;;;;;;;26.80;92.00;;;;;;5040341;28;19920;-74
2022/08/12 14:40:21;;;;;;;;;;;26.70;90.00;;;;;;5058483;28;19924;-74
2022/08/12 14:42:46;;;;;;;;;;;26.70;91.40;;;;;;5028353;28;19989;-75
2022/08/12 14:45:12;;;;;;;;;;;26.80;91.30;;;;;;5062254;28;20283;-75
2022/08/12 14:47:45;;;;;;;;;;;26.80;91.70;;;;;;5044597;28;19928;-74
2022/08/12 14:50:11;;;;;;;;;;;26.80;90.00;;;;;;5062316;28;20464;-74
2022/08/12 14:52:42;;;;;;;;;;;26.80;85.70;;;;;;5062747;28;19928;-74
2022/08/12 14:55:08;;;;;;;;;;;26.80;85.70;;;;;;5061761;28;19932;-74
2022/08/12 14:57:48;;;;;;;;;;;26.80;87.80;;;;;;5027861;28;19950;-74
2022/08/12 15:02:58;;;;;;;;;;;26.90;79.80;;;;;;5061833;28;19924;-74
2022/08/12 15:05:23;;;;;;;;;;;26.90;83.60;;;;;;5044287;28;20366;-73
2022/08/12 15:07:49;;;;;;;;;;;26.90;82.80;;;;;;5044353;28;19920;-73
2022/08/12 15:10:16;;;;;;;;;;;26.90;80.10;;;;;;5043104;28;19920;-74
2022/08/12 15:12:43;;;;;;;;;;;26.90;80.70;;;;;;5044089;28;19920;-74
2022/08/12 15:15:09;;;;;;;;;;;26.90;85.80;;;;;;5062248;28;19927;-73
2022/08/12 15:17:36;;;;;;;;;;;26.90;86.30;;;;;;5061922;28;19920;-74
2022/08/12 15:20:01;;;;;;;;;;;26.90;89.00;;;;;;5061898;28;19920;-74
2022/08/12 15:22:27;;;;;;;;;;;26.90;87.80;;;;;;5062021;28;19993;-73
2022/08/12 15:24:52;;;;;;;;;;;26.90;88.50;;;;;;5060609;28;19972;-73
2022/08/12 15:27:18;;;;;;;;;;;26.90;86.30;;;;;;5061863;28;19943;-74
2022/08/12 15:29:43;;;;;;;;;;;27.00;89.30;;;;;;5043858;28;19927;-73
2022/08/12 15:32:11;;;;;;;;;;;26.90;88.50;;;;;;5061525;28;19920;-74
2022/08/12 15:34:37;;;;;;;;;;;26.90;89.20;;;;;;5062172;28;19920;-74
2022/08/12 15:37:03;;;;;;;;;;;26.90;91.80;;;;;;5062130;28;19927;-74
2022/08/12 15:39:28;;;;;;;;;;;26.90;92.60;;;;;;5042633;28;20366;-74
2022/08/12 15:41:54;;;;;;;;;;;26.90;88.30;;;;;;5061726;28;20286;-74
2022/08/12 15:44:20;;;;;;;;;;;26.90;88.70;;;;;;5061616;28;20011;-74
2022/08/12 15:46:45;;;;;;;;;;;26.90;90.90;;;;;;5061285;28;19924;-74
2022/08/12 15:49:11;;;;;;;;;;;26.90;92.40;;;;;;5061436;28;19998;-74
2022/08/12 15:51:37;;;;;;;;;;;26.90;93.80;;;;;;5061334;28;19916;-74
2022/08/12 15:54:06;;;;;;;;;;;27.00;93.30;;;;;;5061464;28;20286;-74
2022/08/12 15:56:32;;;;;;;;;;;27.00;92.00;;;;;;5060435;28;20006;-74
2022/08/12 15:58:58;;;;;;;;;;;27.00;91.80;;;;;;5043155;28;19924;-74
2022/08/12 16:01:23;;;;;;;;;;;27.00;90.10;;;;;;5043281;28;19923;-74
2022/08/12 16:03:50;;;;;;;;;;;27.00;90.30;;;;;;5061281;28;20393;-74
2022/08/12 16:06:16;;;;;;;;;;;27.00;86.60;;;;;;5060923;28;19927;-74
2022/08/12 16:08:44;;;;;;;;;;;27.00;85.30;;;;;;5043017;28;20279;-75
2022/08/12 16:11:12;;;;;;;;;;;27.00;84.80;;;;;;5060413;28;19946;-74